Time;durP1;ratioP1;P1;durP2;ratioP2;P2;SDS_P1;SDS_P2;PMS_P1;PMS_P2;Temp;Humidity;BMP_temperature;BMP_pressure;BME280_temperature;BME280_humidity;BME280_pressure;Samples;Min_cycle;Max_cycle;Signal;HPM_P1;HPM_P2
2021/10/20 00:01:14;;;;;;;32.85;17.05;;;;;;;;;;5035383;28;20040;-66
2021/10/20 00:03:40;;;;;;;32.25;15.95;;;;;;;;;;5034666;28;20358;-63
2021/10/20 00:06:05;;;;;;;34.85;16.83;;;;;;;;;;5034986;28;20093;-65
2021/10/20 00:08:30;;;;;;;31.73;15.57;;;;;;;;;;5035082;28;20030;-64
2021/10/20 00:10:56;;;;;;;31.88;16.27;;;;;;;;;;5034764;28;20009;-62
2021/10/20 00:13:21;;;;;;;31.98;17.52;;;;;;;;;;5034750;28;20490;-62
2021/10/20 00:15:46;;;;;;;35.40;18.08;;;;;;;;;;5034567;28;20021;-65
2021/10/20 00:18:12;;;;;;;44.50;18.38;;;;;;;;;;5034637;28;20017;-63
2021/10/20 00:20:38;;;;;;;35.92;18.63;;;;;;;;;;5034566;28;20091;-63
2021/10/20 00:23:04;;;;;;;35.85;16.73;;;;;;;;;;5034106;28;20029;-66
2021/10/20 00:25:29;;;;;;;30.20;15.85;;;;;;;;;;5034708;28;20028;-64
2021/10/20 00:27:55;;;;;;;31.55;16.33;;;;;;;;;;5035623;28;20025;-65
2021/10/20 00:30:20;;;;;;;33.80;17.17;;;;;;;;;;5034696;28;20045;-62
2021/10/20 00:32:46;;;;;;;35.72;18.30;;;;;;;;;;5034513;28;20524;-65
2021/10/20 00:35:11;;;;;;;35.85;17.35;;;;;;;;;;5034652;28;20025;-64
2021/10/20 00:37:37;;;;;;;36.47;16.98;;;;;;;;;;5034491;28;20021;-64
2021/10/20 00:40:03;;;;;;;37.63;17.10;;;;;;;;;;5034497;28;20032;-63
2021/10/20 00:42:28;;;;;;;32.40;16.08;;;;;;;;;;5034060;28;20021;-64
2021/10/20 00:44:55;;;;;;;37.60;17.50;;;;;;;;;;5034279;28;20420;-64
2021/10/20 00:47:21;;;;;;;35.28;18.73;;;;;;;;;;5034337;28;20029;-64
2021/10/20 00:49:47;;;;;;;34.83;17.25;;;;;;;;;;5034405;28;20493;-62
2021/10/20 00:52:13;;;;;;;33.63;18.27;;;;;;;;;;5033412;28;20025;-65
2021/10/20 00:54:38;;;;;;;34.03;17.13;;;;;;;;;;5032906;28;20036;-62
2021/10/20 00:57:05;;;;;;;34.10;16.60;;;;;;;;;;5034228;28;20405;-63
2021/10/20 00:59:31;;;;;;;31.30;16.60;;;;;;;;;;5034292;28;20100;-64
2021/10/20 01:01:56;;;;;;;35.45;17.23;;;;;;;;;;5034379;28;20139;-64
2021/10/20 01:04:21;;;;;;;33.63;16.73;;;;;;;;;;5033394;28;20528;-63
2021/10/20 01:06:46;;;;;;;34.13;16.65;;;;;;;;;;5034037;28;20017;-63
2021/10/20 01:09:12;;;;;;;37.53;16.58;;;;;;;;;;5034421;28;20096;-64
2021/10/20 01:11:37;;;;;;;36.08;17.30;;;;;;;;;;5033685;28;20087;-64
2021/10/20 01:14:02;;;;;;;31.50;16.63;;;;;;;;;;5033721;28;20051;-62
2021/10/20 01:16:28;;;;;;;33.17;16.83;;;;;;;;;;5033595;28;20454;-64
2021/10/20 01:18:53;;;;;;;32.75;16.40;;;;;;;;;;5033555;28;20018;-66
2021/10/20 01:21:19;;;;;;;32.40;16.85;;;;;;;;;;5033827;28;20029;-63
2021/10/20 01:23:45;;;;;;;36.45;16.35;;;;;;;;;;5033551;28;20033;-64
2021/10/20 01:26:11;;;;;;;31.88;17.33;;;;;;;;;;5033485;28;20053;-65
2021/10/20 01:28:36;;;;;;;31.42;15.43;;;;;;;;;;5033603;28;20041;-64
2021/10/20 01:31:01;;;;;;;31.48;17.67;;;;;;;;;;5033786;28;20086;-65
2021/10/20 01:33:26;;;;;;;31.60;17.52;;;;;;;;;;5033239;28;20366;-64
2021/10/20 01:35:52;;;;;;;35.38;18.55;;;;;;;;;;5033334;28;20022;-64
2021/10/20 01:38:17;;;;;;;36.65;17.05;;;;;;;;;;5033916;28;20045;-64
2021/10/20 01:40:42;;;;;;;34.40;16.83;;;;;;;;;;5033653;28;20126;-65
2021/10/20 01:43:07;;;;;;;29.63;16.30;;;;;;;;;;5033422;28;20026;-64
2021/10/20 01:45:33;;;;;;;37.10;17.33;;;;;;;;;;5033414;28;20420;-62
2021/10/20 01:47:58;;;;;;;34.25;16.83;;;;;;;;;;5033569;28;20071;-63
2021/10/20 01:50:23;;;;;;;31.52;16.95;;;;;;;;;;5033371;28;20016;-62
2021/10/20 01:52:49;;;;;;;38.00;17.65;;;;;;;;;;5033161;28;20022;-63
2021/10/20 01:55:16;;;;;;;32.30;17.60;;;;;;;;;;5032890;28;20366;-63
2021/10/20 01:57:41;;;;;;;33.53;17.10;;;;;;;;;;5033419;28;20022;-62
2021/10/20 02:00:07;;;;;;;35.65;17.02;;;;;;;;;;5033356;28;20418;-64
2021/10/20 02:02:32;;;;;;;34.38;17.95;;;;;;;;;;5032568;28;20104;-64
2021/10/20 02:04:57;;;;;;;33.55;17.48;;;;;;;;;;5032262;28;20366;-66
2021/10/20 02:07:22;;;;;;;38.03;17.50;;;;;;;;;;5033130;28;20100;-64
2021/10/20 02:09:48;;;;;;;36.85;18.05;;;;;;;;;;5032974;28;20083;-62
2021/10/20 02:12:13;;;;;;;29.40;16.00;;;;;;;;;;5032944;28;20098;-62
2021/10/20 02:14:39;;;;;;;33.03;16.85;;;;;;;;;;5032305;28;20200;-64
2021/10/20 02:17:04;;;;;;;36.88;18.23;;;;;;;;;;5063955;28;20464;-64
2021/10/20 02:19:30;;;;;;;38.50;19.23;;;;;;;;;;5072875;28;20044;-63
2021/10/20 02:21:56;;;;;;;38.80;18.05;;;;;;;;;;5072809;28;20017;-66
2021/10/20 02:24:21;;;;;;;35.15;18.80;;;;;;;;;;5072965;28;20070;-62
2021/10/20 02:26:47;;;;;;;36.17;17.85;;;;;;;;;;5072826;28;20020;-63
2021/10/20 02:29:12;;;;;;;32.40;17.15;;;;;;;;;;5072621;28;20542;-65
2021/10/20 02:31:37;;;;;;;31.67;16.73;;;;;;;;;;5073014;28;20039;-63
2021/10/20 02:34:03;;;;;;;35.25;18.00;;;;;;;;;;5072471;28;20024;-62
2021/10/20 02:36:28;;;;;;;36.33;17.38;;;;;;;;;;5072826;28;20031;-62
2021/10/20 02:38:53;;;;;;;34.78;17.58;;;;;;;;;;5072819;28;20578;-64
2021/10/20 02:41:19;;;;;;;32.47;17.05;;;;;;;;;;5072642;28;20517;-63
2021/10/20 02:43:44;;;;;;;38.75;19.00;;;;;;;;;;5072476;28;20066;-63
2021/10/20 02:46:09;;;;;;;38.03;18.77;;;;;;;;;;5072466;28;20044;-66
2021/10/20 02:48:34;;;;;;;39.50;18.60;;;;;;;;;;5073129;28;20108;-65
2021/10/20 02:51:00;;;;;;;35.58;18.85;;;;;;;;;;5072826;28;20077;-63
2021/10/20 02:53:25;;;;;;;37.13;18.02;;;;;;;;;;5072800;28;20031;-63
2021/10/20 02:55:50;;;;;;;36.47;17.60;;;;;;;;;;5072492;28;20017;-64
2021/10/20 02:58:15;;;;;;;35.10;18.75;;;;;;;;;;5072210;28;20021;-65
2021/10/20 03:00:41;;;;;;;36.40;19.45;;;;;;;;;;5072554;28;20072;-64
2021/10/20 03:03:06;;;;;;;38.28;19.10;;;;;;;;;;5072090;28;20044;-65
2021/10/20 03:05:31;;;;;;;39.08;21.00;;;;;;;;;;5072232;28;20095;-62
2021/10/20 03:07:56;;;;;;;39.35;19.13;;;;;;;;;;5072791;28;20488;-65
2021/10/20 03:10:26;;;;;;;41.17;20.55;;;;;;;;;;5072375;28;20095;-65
2021/10/20 03:12:51;;;;;;;;;;;;;;;;;;5072888;28;20113;-63
2021/10/20 03:15:16;;;;;;;34.60;19.35;;;;;;;;;;5073785;28;19940;-64
2021/10/20 03:17:42;;;;;;;43.42;19.92;;;;;;;;;;5076097;28;20016;-64
2021/10/20 03:20:09;;;;;;;38.80;19.90;;;;;;;;;;5076049;28;20020;-65
2021/10/20 03:22:41;;;;;;;41.40;20.80;;;;;;;;;;5075887;28;20437;-61
2021/10/20 03:25:07;;;;;;;41.33;20.25;;;;;;;;;;5074539;28;20112;-63
2021/10/20 03:27:32;;;;;;;44.33;21.70;;;;;;;;;;5075798;28;20099;-65
2021/10/20 03:29:58;;;;;;;42.30;20.65;;;;;;;;;;5076048;28;20024;-64
2021/10/20 03:32:23;;;;;;;41.40;20.20;;;;;;;;;;5075154;28;20016;-61
2021/10/20 03:34:48;;;;;;;41.45;20.65;;;;;;;;;;5075600;28;20016;-62
2021/10/20 03:37:14;;;;;;;44.10;19.67;;;;;;;;;;5075578;28;20032;-62
2021/10/20 03:39:39;;;;;;;53.75;22.30;;;;;;;;;;5075615;28;20368;-64
2021/10/20 03:42:04;;;;;;;48.67;22.88;;;;;;;;;;5075581;28;20098;-64
2021/10/20 03:44:29;;;;;;;40.67;22.42;;;;;;;;;;5075520;28;20416;-64
2021/10/20 03:46:54;;;;;;;45.33;21.17;;;;;;;;;;5075569;28;20070;-64
2021/10/20 03:49:20;;;;;;;48.65;22.98;;;;;;;;;;5075497;28;20025;-63
2021/10/20 03:51:45;;;;;;;48.80;22.13;;;;;;;;;;5075522;28;20016;-62
2021/10/20 03:54:10;;;;;;;55.33;25.95;;;;;;;;;;5074998;28;20013;-64
2021/10/20 03:56:35;;;;;;;58.28;27.00;;;;;;;;;;5075544;28;20480;-63
2021/10/20 03:59:01;;;;;;;51.78;23.15;;;;;;;;;;5075369;28;20022;-63
2021/10/20 04:01:27;;;;;;;55.90;27.67;;;;;;;;;;5075100;28;20049;-64
2021/10/20 04:03:52;;;;;;;52.58;25.27;;;;;;;;;;5073286;28;20049;-64
2021/10/20 04:06:17;;;;;;;66.93;28.70;;;;;;;;;;5074725;28;20070;-63
2021/10/20 04:08:43;;;;;;;69.00;30.60;;;;;;;;;;5075448;28;20533;-63
2021/10/20 04:11:08;;;;;;;58.40;28.67;;;;;;;;;;5075199;28;20009;-61
2021/10/20 04:13:33;;;;;;;64.30;30.92;;;;;;;;;;5075136;28;20503;-63
2021/10/20 04:15:58;;;;;;;69.18;32.22;;;;;;;;;;5074763;28;20061;-62
2021/10/20 04:18:24;;;;;;;57.80;29.90;;;;;;;;;;5074872;28;20031;-64
2021/10/20 04:20:49;;;;;;;60.88;30.95;;;;;;;;;;5074909;28;20025;-63
2021/10/20 04:23:15;;;;;;;65.20;30.15;;;;;;;;;;5074438;28;20498;-65
2021/10/20 04:25:40;;;;;;;60.15;30.02;;;;;;;;;;5074623;28;20031;-62
2021/10/20 04:28:05;;;;;;;60.55;29.95;;;;;;;;;;5073818;28;20044;-64
2021/10/20 04:30:30;;;;;;;58.17;29.05;;;;;;;;;;5074655;28;20372;-63
2021/10/20 04:32:56;;;;;;;58.97;29.15;;;;;;;;;;5074324;28;20074;-63
2021/10/20 04:35:23;;;;;;;55.08;27.42;;;;;;;;;;5074291;28;20023;-64
2021/10/20 04:37:49;;;;;;;62.72;30.10;;;;;;;;;;5074246;28;20094;-64
2021/10/20 04:40:15;;;;;;;76.60;32.42;;;;;;;;;;5074542;28;20031;-65
2021/10/20 04:42:40;;;;;;;58.88;28.80;;;;;;;;;;5074052;28;20384;-65
2021/10/20 04:45:06;;;;;;;57.83;29.67;;;;;;;;;;5074224;28;20036;-64
2021/10/20 04:47:31;;;;;;;58.75;29.65;;;;;;;;;;5074199;28;20008;-65
2021/10/20 04:49:57;;;;;;;53.83;27.15;;;;;;;;;;5074504;28;20012;-64
2021/10/20 04:52:23;;;;;;;57.85;28.98;;;;;;;;;;5073822;28;20473;-64
2021/10/20 04:54:49;;;;;;;56.47;29.80;;;;;;;;;;5072805;28;20474;-62
2021/10/20 04:57:15;;;;;;;57.70;30.20;;;;;;;;;;5074020;28;20043;-63
2021/10/20 04:59:40;;;;;;;66.63;32.20;;;;;;;;;;5073805;28;20066;-61
2021/10/20 05:02:06;;;;;;;61.47;30.98;;;;;;;;;;5073861;28;20058;-63
2021/10/20 05:04:31;;;;;;;64.07;32.55;;;;;;;;;;5073718;28;20507;-63
2021/10/20 05:06:57;;;;;;;68.75;33.70;;;;;;;;;;5073879;28;20417;-63
2021/10/20 05:09:22;;;;;;;60.65;30.48;;;;;;;;;;5072615;28;20431;-63
2021/10/20 05:11:47;;;;;;;70.32;33.67;;;;;;;;;;5074148;28;20020;-64
2021/10/20 05:14:13;;;;;;;63.17;31.20;;;;;;;;;;5073631;28;20021;-64
2021/10/20 05:16:38;;;;;;;66.15;32.08;;;;;;;;;;5073584;28;20009;-63
2021/10/20 05:19:03;;;;;;;71.65;32.70;;;;;;;;;;5073642;28;20438;-63
2021/10/20 05:21:29;;;;;;;73.93;33.42;;;;;;;;;;5073222;28;20070;-62
2021/10/20 05:23:54;;;;;;;73.25;32.97;;;;;;;;;;5073567;28;20507;-65
2021/10/20 05:26:20;;;;;;;64.55;32.35;;;;;;;;;;5073555;28;20024;-61
2021/10/20 05:28:45;;;;;;;63.80;32.13;;;;;;;;;;5073245;28;20016;-65
2021/10/20 05:31:11;;;;;;;75.07;34.88;;;;;;;;;;5073696;28;20028;-62
2021/10/20 05:33:36;;;;;;;73.05;31.02;;;;;;;;;;5073087;28;20477;-63
2021/10/20 05:36:01;;;;;;;67.45;33.03;;;;;;;;;;5073053;28;20024;-63
2021/10/20 05:38:27;;;;;;;61.78;32.30;;;;;;;;;;5072896;28;20069;-64
2021/10/20 05:40:52;;;;;;;69.65;32.65;;;;;;;;;;5072469;28;20021;-63
2021/10/20 05:43:19;;;;;;;64.47;30.42;;;;;;;;;;5072665;28;20021;-64
2021/10/20 05:45:44;;;;;;;62.17;30.92;;;;;;;;;;5072870;28;20029;-63
2021/10/20 05:48:10;;;;;;;64.88;29.45;;;;;;;;;;5072713;28;20035;-63
2021/10/20 05:50:35;;;;;;;63.97;30.33;;;;;;;;;;5072989;28;20020;-63
2021/10/20 05:53:00;;;;;;;53.35;28.90;;;;;;;;;;5072699;28;20060;-64
2021/10/20 05:55:26;;;;;;;69.22;30.90;;;;;;;;;;5072909;28;20372;-63
2021/10/20 05:57:51;;;;;;;57.35;28.83;;;;;;;;;;5063132;28;20032;-63
2021/10/20 06:00:16;;;;;;;58.92;28.40;;;;;;;;;;5060336;28;20025;-63
2021/10/20 06:02:42;;;;;;;57.63;28.15;;;;;;;;;;5051636;28;20106;-63
2021/10/20 06:05:08;;;;;;;62.40;28.70;;;;;;;;;;5050274;28;20064;-64
2021/10/20 06:07:38;;;;;;;57.17;28.63;;;;;;;;;;5049675;28;20477;-64
2021/10/20 06:10:03;;;;;;;56.28;29.05;;;;;;;;;;5050451;28;20099;-63
2021/10/20 06:12:28;;;;;;;59.15;30.85;;;;;;;;;;5052092;28;20428;-64
2021/10/20 06:14:53;;;;;;;56.95;30.17;;;;;;;;;;5051325;28;20013;-65
2021/10/20 06:17:19;;;;;;;62.45;31.80;;;;;;;;;;5045959;28;20017;-61
2021/10/20 06:19:45;;;;;;;62.55;30.60;;;;;;;;;;5034085;28;20374;-62
2021/10/20 06:22:11;;;;;;;64.13;31.52;;;;;;;;;;5049898;28;20029;-61
2021/10/20 06:24:36;;;;;;;69.18;31.45;;;;;;;;;;5051066;28;20032;-61
2021/10/20 06:27:01;;;;;;;59.97;32.13;;;;;;;;;;5049129;28;20024;-62
2021/10/20 06:29:26;;;;;;;73.75;35.28;;;;;;;;;;5055058;28;20039;-62
2021/10/20 06:31:52;;;;;;;69.75;32.88;;;;;;;;;;5059982;28;20108;-62
2021/10/20 06:34:17;;;;;;;66.90;34.30;;;;;;;;;;5067596;28;20680;-61
2021/10/20 06:36:43;;;;;;;71.18;35.10;;;;;;;;;;5057464;28;20025;-62
2021/10/20 06:39:08;;;;;;;62.60;31.90;;;;;;;;;;5053407;28;20013;-66
2021/10/20 06:41:33;;;;;;;60.45;30.92;;;;;;;;;;5055639;28;20020;-65
2021/10/20 06:43:58;;;;;;;61.35;30.17;;;;;;;;;;5055958;28;20029;-65
2021/10/20 06:46:24;;;;;;;63.17;30.90;;;;;;;;;;5047876;28;20017;-61
2021/10/20 06:48:49;;;;;;;59.53;32.10;;;;;;;;;;5042184;28;20385;-61
2021/10/20 06:51:15;;;;;;;57.72;29.42;;;;;;;;;;5050735;28;20040;-62
2021/10/20 06:53:40;;;;;;;59.25;29.52;;;;;;;;;;5051741;28;20067;-62
2021/10/20 06:56:07;;;;;;;61.88;32.17;;;;;;;;;;5055166;28;20455;-61
2021/10/20 06:58:33;;;;;;;73.13;33.45;;;;;;;;;;5055448;28;20342;-61
2021/10/20 07:00:58;;;;;;;60.85;32.30;;;;;;;;;;5057218;28;20036;-61
2021/10/20 07:03:24;;;;;;;64.80;36.35;;;;;;;;;;5054284;28;20516;-61
2021/10/20 07:05:49;;;;;;;83.00;46.10;;;;;;;;;;5054743;28;20032;-60
2021/10/20 07:08:14;;;;;;;79.80;46.17;;;;;;;;;;5054516;28;20528;-61
2021/10/20 07:10:40;;;;;;;84.85;48.58;;;;;;;;;;5039184;28;20028;-63
2021/10/20 07:13:05;;;;;;;71.47;41.20;;;;;;;;;;5062221;28;20054;-61
2021/10/20 07:15:31;;;;;;;65.28;35.70;;;;;;;;;;5072896;28;20065;-62
2021/10/20 07:17:56;;;;;;;64.30;31.92;;;;;;;;;;5074418;28;20491;-61
2021/10/20 07:20:21;;;;;;;70.07;32.75;;;;;;;;;;5074007;28;20056;-61
2021/10/20 07:22:46;;;;;;;64.25;33.03;;;;;;;;;;5064417;28;20488;-62
2021/10/20 07:25:14;;;;;;;66.13;33.35;;;;;;;;;;5053611;28;20032;-62
2021/10/20 07:27:39;;;;;;;75.00;38.30;;;;;;;;;;5050854;28;20029;-63
2021/10/20 07:30:05;;;;;;;74.18;37.20;;;;;;;;;;5051442;28;20016;-65
2021/10/20 07:32:30;;;;;;;62.03;33.88;;;;;;;;;;5052730;28;20021;-62
2021/10/20 07:34:56;;;;;;;69.65;36.03;;;;;;;;;;5052820;28;20025;-62
2021/10/20 07:37:21;;;;;;;72.15;33.03;;;;;;;;;;5053713;28;20435;-63
2021/10/20 07:39:46;;;;;;;70.20;35.55;;;;;;;;;;5052791;28;20032;-63
2021/10/20 07:42:12;;;;;;;63.30;34.42;;;;;;;;;;5053560;28;20021;-63
2021/10/20 07:44:37;;;;;;;61.30;33.85;;;;;;;;;;5054454;28;20104;-63
2021/10/20 07:47:02;;;;;;;61.95;33.53;;;;;;;;;;5055322;28;20623;-63
2021/10/20 07:49:28;;;;;;;64.05;34.63;;;;;;;;;;5054690;28;20056;-63
2021/10/20 07:51:57;;;;;;;61.78;35.28;;;;;;;;;;5052804;28;20024;-64
2021/10/20 07:54:23;;;;;;;65.75;35.45;;;;;;;;;;5053146;28;20498;-63
2021/10/20 07:56:48;;;;;;;63.40;33.42;;;;;;;;;;5053143;28;20056;-63
2021/10/20 07:59:14;;;;;;;61.38;34.55;;;;;;;;;;5053118;28;20477;-63
2021/10/20 08:01:39;;;;;;;56.10;32.42;;;;;;;;;;5052853;28;20145;-63
2021/10/20 08:04:04;;;;;;;58.80;32.53;;;;;;;;;;5052203;28;20059;-62
2021/10/20 08:06:29;;;;;;;57.47;30.73;;;;;;;;;;5054175;28;20503;-61
2021/10/20 08:08:55;;;;;;;56.37;33.67;;;;;;;;;;5053838;28;20017;-61
2021/10/20 08:11:20;;;;;;;63.50;34.57;;;;;;;;;;5047960;28;20279;-64
2021/10/20 08:13:45;;;;;;;52.70;31.00;;;;;;;;;;5049617;28;20298;-60
2021/10/20 08:16:10;;;;;;;60.58;34.17;;;;;;;;;;5034730;28;20481;-62
2021/10/20 08:18:36;;;;;;;74.32;39.47;;;;;;;;;;5048055;28;20021;-61
2021/10/20 08:21:01;;;;;;;70.30;41.13;;;;;;;;;;5054631;28;20017;-65
2021/10/20 08:23:28;;;;;;;64.93;37.08;;;;;;;;;;5054702;28;20464;-63
2021/10/20 08:25:54;;;;;;;58.47;31.67;;;;;;;;;;5049554;28;20069;-65
2021/10/20 08:28:19;;;;;;;62.47;25.65;;;;;;;;;;5048633;28;20055;-73
2021/10/20 08:30:44;;;;;;;42.00;25.87;;;;;;;;;;5053666;28;20017;-69
2021/10/20 08:33:09;;;;;;;56.45;26.55;;;;;;;;;;5051239;28;20261;-72
2021/10/20 08:35:37;;;;;;;40.95;23.60;;;;;;;;;;5052363;28;20013;-74
2021/10/20 08:38:03;;;;;;;42.55;25.00;;;;;;;;;;5050016;28;20021;-70
2021/10/20 08:40:47;;;;;;;43.25;27.75;;;;;;;;;;5047184;28;20028;-70
2021/10/20 08:43:13;;;;;;;48.60;25.02;;;;;;;;;;5052672;28;20071;-70
2021/10/20 08:45:38;;;;;;;39.70;21.63;;;;;;;;;;5052043;28;20500;-70
2021/10/20 08:48:04;;;;;;;44.65;23.67;;;;;;;;;;5052358;28;20022;-67
2021/10/20 08:50:30;;;;;;;37.13;23.13;;;;;;;;;;5051923;28;20039;-66
2021/10/20 08:52:56;;;;;;;31.45;21.50;;;;;;;;;;5049433;28;20485;-71
2021/10/20 08:55:22;;;;;;;41.63;23.08;;;;;;;;;;5053173;28;20025;-68
2021/10/20 08:57:51;;;;;;;36.67;22.48;;;;;;;;;;5052257;28;20064;-70
2021/10/20 09:00:17;;;;;;;47.42;22.10;;;;;;;;;;5048328;28;20017;-71
2021/10/20 09:02:43;;;;;;;36.45;22.10;;;;;;;;;;5056124;28;20045;-77
2021/10/20 09:05:09;;;;;;;36.47;22.52;;;;;;;;;;5056238;28;20032;-71
2021/10/20 09:07:37;;;;;;;45.28;22.02;;;;;;;;;;5052311;28;20017;-69
2021/10/20 09:10:12;;;;;;;42.25;22.60;;;;;;;;;;5052631;28;20056;-74
2021/10/20 09:12:38;;;;;;;38.55;20.25;;;;;;;;;;5048565;28;20080;-70
2021/10/20 09:15:11;;;;;;;31.98;19.25;;;;;;;;;;5048590;28;20380;-69
2021/10/20 09:17:45;;;;;;;30.02;19.63;;;;;;;;;;5047114;28;20106;-70
2021/10/20 09:20:18;;;;;;;31.95;19.77;;;;;;;;;;5051346;28;20021;-71
2021/10/20 09:23:02;;;;;;;28.67;19.25;;;;;;;;;;5051246;28;20075;-67
2021/10/20 09:25:35;;;;;;;31.73;19.20;;;;;;;;;;5049112;28;20025;-67
2021/10/20 09:28:00;;;;;;;33.33;18.75;;;;;;;;;;5051592;28;20028;-64
2021/10/20 09:30:27;;;;;;;34.33;18.60;;;;;;;;;;5052402;28;20021;-69
2021/10/20 09:32:52;;;;;;;36.92;21.17;;;;;;;;;;5051811;28;20017;-69
2021/10/20 09:35:17;;;;;;;28.60;18.67;;;;;;;;;;5052659;28;20046;-69
2021/10/20 09:37:43;;;;;;;30.50;18.88;;;;;;;;;;5051026;28;20258;-71
2021/10/20 09:40:12;;;;;;;45.75;20.48;;;;;;;;;;5050888;28;20029;-70
2021/10/20 09:42:47;;;;;;;31.17;19.70;;;;;;;;;;5050681;28;20017;-63
2021/10/20 09:45:14;;;;;;;30.45;20.38;;;;;;;;;;5046827;28;20029;-62
2021/10/20 09:47:39;;;;;;;33.90;19.60;;;;;;;;;;5044089;28;20017;-63
2021/10/20 09:50:05;;;;;;;27.98;18.80;;;;;;;;;;5049684;28;20512;-63
2021/10/20 09:52:41;;;;;;;29.55;17.80;;;;;;;;;;5047768;28;20063;-63
2021/10/20 09:55:07;;;;;;;30.23;19.20;;;;;;;;;;5048786;28;20013;-63
2021/10/20 09:57:33;;;;;;;28.20;19.52;;;;;;;;;;5037693;28;20489;-64
2021/10/20 09:59:58;;;;;;;30.52;18.60;;;;;;;;;;5043002;28;20021;-64
2021/10/20 10:02:24;;;;;;;30.13;17.77;;;;;;;;;;5051730;28;20075;-73
2021/10/20 10:04:49;;;;;;;29.85;18.88;;;;;;;;;;5052518;28;20029;-65
2021/10/20 10:07:15;;;;;;;28.55;16.85;;;;;;;;;;5051664;28;20093;-66
2021/10/20 10:09:40;;;;;;;24.97;16.87;;;;;;;;;;5051488;28;20103;-67
2021/10/20 10:12:17;;;;;;;29.00;17.43;;;;;;;;;;5051674;28;20258;-66
2021/10/20 10:14:49;;;;;;;31.08;16.35;;;;;;;;;;5050345;28;20599;-65
2021/10/20 10:17:18;;;;;;;30.27;16.13;;;;;;;;;;5040374;28;20056;-64
2021/10/20 10:19:44;;;;;;;27.33;14.90;;;;;;;;;;5045649;28;20021;-65
2021/10/20 10:22:28;;;;;;;23.38;13.98;;;;;;;;;;5051580;28;20107;-65
2021/10/20 10:24:58;;;;;;;21.67;15.88;;;;;;;;;;5053611;28;20513;-69
2021/10/20 10:27:23;;;;;;;21.88;15.45;;;;;;;;;;5050230;28;20025;-69
2021/10/20 10:29:51;;;;;;;23.60;15.17;;;;;;;;;;5054982;28;20029;-68
2021/10/20 10:32:18;;;;;;;23.35;14.65;;;;;;;;;;5055415;28;20266;-73
2021/10/20 10:34:44;;;;;;;23.17;15.27;;;;;;;;;;5056041;28;20029;-72
2021/10/20 10:37:36;;;;;;;23.88;14.82;;;;;;;;;;5055711;28;20021;-76
2021/10/20 10:40:32;;;;;;;22.73;14.35;;;;;;;;;;5035950;28;20021;-75
2021/10/20 10:43:08;;;;;;;25.67;14.90;;;;;;;;;;5031034;28;20021;-75
2021/10/20 10:45:33;;;;;;;23.20;15.27;;;;;;;;;;5036840;28;20021;-76
2021/10/20 10:48:00;;;;;;;24.48;15.00;;;;;;;;;;5036413;28;20017;-77
2021/10/20 10:50:55;;;;;;;23.27;15.40;;;;;;;;;;5046519;28;20367;-77
2021/10/20 10:53:34;;;;;;;28.98;15.25;;;;;;;;;;5047848;28;20434;-74
2021/10/20 10:56:05;;;;;;;26.13;15.52;;;;;;;;;;5042367;28;20029;-76
2021/10/20 10:58:50;;;;;;;28.65;15.38;;;;;;;;;;5049115;28;20384;-77
2021/10/20 11:01:36;;;;;;;23.15;15.63;;;;;;;;;;5054491;28;20017;-73
2021/10/20 11:04:27;;;;;;;26.48;14.90;;;;;;;;;;5054137;28;20099;-75
2021/10/20 11:06:54;;;;;;;26.90;14.45;;;;;;;;;;5051330;28;20040;-69
2021/10/20 11:09:26;;;;;;;20.83;14.25;;;;;;;;;;5057168;28;20493;-71
2021/10/20 11:11:53;;;;;;;19.15;14.52;;;;;;;;;;5050660;28;20087;-68
2021/10/20 11:14:25;;;;;;;23.40;14.27;;;;;;;;;;5054306;28;20025;-69
2021/10/20 11:17:04;;;;;;;32.35;15.88;;;;;;;;;;5051609;28;20105;-68
2021/10/20 11:19:30;;;;;;;23.95;13.73;;;;;;;;;;5050548;28;20013;-74
2021/10/20 11:22:02;;;;;;;20.38;13.50;;;;;;;;;;5053211;28;20421;-75
2021/10/20 11:24:34;;;;;;;18.45;13.15;;;;;;;;;;5051805;28;20045;-76
2021/10/20 11:27:01;;;;;;;21.25;13.88;;;;;;;;;;5050631;28;20381;-75
2021/10/20 11:29:47;;;;;;;22.98;14.50;;;;;;;;;;5051571;28;20354;-75
2021/10/20 11:32:51;;;;;;;23.27;13.20;;;;;;;;;;5055514;28;20025;-74
2021/10/20 11:35:19;;;;;;;20.65;12.82;;;;;;;;;;5044848;28;20104;-77
2021/10/20 11:38:00;;;;;;;21.67;14.13;;;;;;;;;;5052334;28;20040;-74
2021/10/20 11:40:30;;;;;;;20.73;14.90;;;;;;;;;;5053293;28;20099;-77
2021/10/20 11:42:56;;;;;;;22.02;13.68;;;;;;;;;;5050939;28;20032;-76
2021/10/20 11:45:21;;;;;;;22.92;13.10;;;;;;;;;;5047812;28;20036;-67
2021/10/20 11:47:47;;;;;;;20.77;13.60;;;;;;;;;;5051668;28;20568;-68
2021/10/20 11:50:14;;;;;;;24.58;13.25;;;;;;;;;;5052512;28;20131;-68
2021/10/20 11:52:40;;;;;;;20.73;13.02;;;;;;;;;;5050135;28;20013;-67
2021/10/20 11:55:05;;;;;;;17.95;12.45;;;;;;;;;;5052371;28;20393;-67
2021/10/20 11:57:31;;;;;;;17.73;11.75;;;;;;;;;;5051420;28;20028;-69
2021/10/20 11:59:56;;;;;;;20.23;12.55;;;;;;;;;;5047427;28;20017;-70
2021/10/20 12:02:28;;;;;;;19.38;12.65;;;;;;;;;;5048188;28;20017;-67
2021/10/20 12:04:56;;;;;;;19.50;12.30;;;;;;;;;;5050395;28;20025;-67
2021/10/20 12:07:25;;;;;;;16.23;11.98;;;;;;;;;;5050376;28;20024;-67
2021/10/20 12:09:50;;;;;;;;;;;;;;;;;;5046119;28;20032;-69
2021/10/20 12:12:17;;;;;;;20.38;11.85;;;;;;;;;;5049408;28;19974;-71
2021/10/20 12:14:43;;;;;;;17.42;10.63;;;;;;;;;;5050028;28;20075;-71
2021/10/20 12:17:09;;;;;;;19.65;12.13;;;;;;;;;;5050117;28;20021;-70
2021/10/20 12:19:36;;;;;;;16.23;11.00;;;;;;;;;;5050094;28;20651;-76
2021/10/20 12:22:03;;;;;;;22.75;11.38;;;;;;;;;;5049486;28;20086;-75
2021/10/20 12:24:33;;;;;;;15.98;10.68;;;;;;;;;;5048877;28;20025;-77
2021/10/20 12:26:59;;;;;;;19.50;11.45;;;;;;;;;;5048797;28;20013;-75
2021/10/20 12:29:26;;;;;;;17.77;11.70;;;;;;;;;;5051312;28;20487;-73
2021/10/20 12:31:55;;;;;;;16.95;10.68;;;;;;;;;;5051588;28;20017;-75
2021/10/20 12:34:20;;;;;;;25.55;12.98;;;;;;;;;;5051269;28;20025;-78
2021/10/20 12:36:46;;;;;;;17.40;12.00;;;;;;;;;;5052918;28;20021;-72
2021/10/20 12:39:11;;;;;;;19.73;12.15;;;;;;;;;;5052259;28;20253;-71
2021/10/20 12:41:36;;;;;;;18.83;12.30;;;;;;;;;;5053184;28;20017;-75
2021/10/20 12:44:06;;;;;;;18.30;11.70;;;;;;;;;;5052844;28;20317;-80
2021/10/20 12:46:33;;;;;;;21.77;12.75;;;;;;;;;;5053147;28;20017;-74
2021/10/20 12:48:58;;;;;;;18.75;12.45;;;;;;;;;;5052110;28;20021;-79
2021/10/20 12:51:25;;;;;;;21.60;13.32;;;;;;;;;;5069606;28;20012;-77
2021/10/20 12:53:54;;;;;;;22.35;12.43;;;;;;;;;;5072748;28;20013;-75
2021/10/20 12:56:22;;;;;;;18.33;12.07;;;;;;;;;;5072650;28;20025;-76
2021/10/20 12:58:50;;;;;;;19.85;12.40;;;;;;;;;;5072563;28;20361;-64
2021/10/20 13:01:18;;;;;;;23.33;13.18;;;;;;;;;;5072560;28;20020;-66
2021/10/20 13:03:43;;;;;;;27.85;12.93;;;;;;;;;;5048834;28;20041;-68
2021/10/20 13:06:09;;;;;;;25.42;15.05;;;;;;;;;;5051090;28;20032;-65
2021/10/20 13:08:37;;;;;;;20.88;11.82;;;;;;;;;;5051901;28;20021;-67
2021/10/20 13:11:02;;;;;;;22.45;11.52;;;;;;;;;;5051907;28;20032;-66
2021/10/20 13:13:28;;;;;;;21.05;12.73;;;;;;;;;;5061930;28;20080;-70
2021/10/20 13:15:55;;;;;;;22.80;12.45;;;;;;;;;;5072288;28;20380;-71
2021/10/20 13:18:21;;;;;;;20.60;12.25;;;;;;;;;;5072174;28;20024;-72
2021/10/20 13:20:47;;;;;;;18.08;11.88;;;;;;;;;;5072241;28;20476;-70
2021/10/20 13:23:12;;;;;;;19.25;11.25;;;;;;;;;;5071631;28;20040;-70
2021/10/20 13:25:38;;;;;;;21.27;12.05;;;;;;;;;;5071668;28;20069;-71
2021/10/20 13:28:05;;;;;;;27.00;15.20;;;;;;;;;;5070791;28;20024;-71
2021/10/20 13:30:31;;;;;;;19.42;14.32;;;;;;;;;;5071193;28;20528;-72
2021/10/20 13:32:56;;;;;;;25.17;13.30;;;;;;;;;;5064793;28;20151;-70
2021/10/20 13:35:21;;;;;;;17.77;11.88;;;;;;;;;;5050522;28;20040;-70
2021/10/20 13:37:48;;;;;;;23.10;11.88;;;;;;;;;;5051144;28;20048;-71
2021/10/20 13:40:13;;;;;;;21.85;11.90;;;;;;;;;;5051247;28;20405;-69
2021/10/20 13:42:39;;;;;;;23.02;11.98;;;;;;;;;;5063527;28;20288;-69
2021/10/20 13:45:06;;;;;;;20.85;11.82;;;;;;;;;;5050939;28;20525;-72
2021/10/20 13:47:32;;;;;;;19.30;11.40;;;;;;;;;;5050798;28;20028;-69
2021/10/20 13:49:58;;;;;;;21.20;11.75;;;;;;;;;;5050997;28;20017;-72
2021/10/20 13:52:25;;;;;;;18.33;11.98;;;;;;;;;;5050897;28;20017;-71
2021/10/20 13:54:50;;;;;;;24.15;12.40;;;;;;;;;;5050185;28;20016;-74
2021/10/20 13:57:15;;;;;;;22.02;11.52;;;;;;;;;;5050357;28;20013;-64
2021/10/20 13:59:40;;;;;;;21.85;11.20;;;;;;;;;;5060939;28;20587;-65
2021/10/20 14:02:06;;;;;;;19.37;11.70;;;;;;;;;;5064209;28;20013;-65
2021/10/20 14:04:32;;;;;;;21.00;11.60;;;;;;;;;;5050524;28;20278;-65
2021/10/20 14:06:57;;;;;;;20.02;12.50;;;;;;;;;;5055391;28;20504;-65
2021/10/20 14:09:23;;;;;;;20.73;11.50;;;;;;;;;;5051274;28;20017;-66
2021/10/20 14:11:48;;;;;;;17.15;11.50;;;;;;;;;;5055457;28;20021;-67
2021/10/20 14:14:14;;;;;;;17.55;10.88;;;;;;;;;;5050769;28;20025;-67
2021/10/20 14:16:39;;;;;;;22.98;11.48;;;;;;;;;;5049818;28;20029;-67